sensor_id;sensor_type;location;lat;lon;timestamp;pressure;altitude;pressure_sealevel;temperature;humidity
14242;BME280;7205;50.864;12.766;2023-04-10T00:01:20;98480.56;;;5.54;71.49
14242;BME280;7205;50.864;12.766;2023-04-10T00:03:47;98466.88;;;5.51;71.72
14242;BME280;7205;50.864;12.766;2023-04-10T00:06:14;98467.69;;;5.51;71.73
14242;BME280;7205;50.864;12.766;2023-04-10T00:08:41;98470.56;;;5.48;71.52
14242;BME280;7205;50.864;12.766;2023-04-10T00:11:09;98469.03;;;5.46;71.45
14242;BME280;7205;50.864;12.766;2023-04-10T00:13:35;98473.56;;;5.44;71.81
14242;BME280;7205;50.864;12.766;2023-04-10T00:16:03;98466.09;;;5.39;71.77
14242;BME280;7205;50.864;12.766;2023-04-10T00:18:29;98461.91;;;5.37;71.61
14242;BME280;7205;50.864;12.766;2023-04-10T00:20:56;98462.03;;;5.35;71.70
14242;BME280;7205;50.864;12.766;2023-04-10T00:23:23;98466.56;;;5.33;71.82
14242;BME280;7205;50.864;12.766;2023-04-10T00:25:50;98458.00;;;5.31;71.96
14242;BME280;7205;50.864;12.766;2023-04-10T00:28:18;98466.94;;;5.29;72.08
14242;BME280;7205;50.864;12.766;2023-04-10T00:30:45;98460.97;;;5.27;72.22
14242;BME280;7205;50.864;12.766;2023-04-10T00:33:12;98459.47;;;5.24;72.33
14242;BME280;7205;50.864;12.766;2023-04-10T00:35:39;98449.91;;;5.23;72.44
14242;BME280;7205;50.864;12.766;2023-04-10T00:38:05;98455.16;;;5.23;72.76
14242;BME280;7205;50.864;12.766;2023-04-10T00:40:32;98448.28;;;5.22;72.87
14242;BME280;7205;50.864;12.766;2023-04-10T00:42:59;98443.97;;;5.21;72.99
14242;BME280;7205;50.864;12.766;2023-04-10T00:45:27;98443.16;;;5.21;72.50
14242;BME280;7205;50.864;12.766;2023-04-10T00:47:54;98451.13;;;5.19;72.47
14242;BME280;7205;50.864;12.766;2023-04-10T00:50:22;98439.94;;;5.17;72.77
14242;BME280;7205;50.864;12.766;2023-04-10T00:52:49;98437.47;;;5.16;73.01
14242;BME280;7205;50.864;12.766;2023-04-10T00:55:17;98445.44;;;5.14;72.72
14242;BME280;7205;50.864;12.766;2023-04-10T00:57:45;98444.84;;;5.10;73.38
14242;BME280;7205;50.864;12.766;2023-04-10T01:00:12;98443.28;;;5.08;72.77
14242;BME280;7205;50.864;12.766;2023-04-10T01:02:41;98441.97;;;5.02;73.05
14242;BME280;7205;50.864;12.766;2023-04-10T01:05:09;98444.84;;;4.99;72.75
14242;BME280;7205;50.864;12.766;2023-04-10T01:07:47;98442.34;;;4.98;72.77
14242;BME280;7205;50.864;12.766;2023-04-10T01:10:22;98439.97;;;4.95;73.35
14242;BME280;7205;50.864;12.766;2023-04-10T01:13:00;98442.72;;;4.93;73.57
14242;BME280;7205;50.864;12.766;2023-04-10T01:15:36;98433.31;;;4.91;73.44
14242;BME280;7205;50.864;12.766;2023-04-10T01:18:15;98440.22;;;4.92;73.94
14242;BME280;7205;50.864;12.766;2023-04-10T01:20:44;98439.38;;;4.91;74.06
14242;BME280;7205;50.864;12.766;2023-04-10T01:26:12;98450.22;;;4.87;73.81
14242;BME280;7205;50.864;12.766;2023-04-10T01:28:53;98440.09;;;4.82;73.47
14242;BME280;7205;50.864;12.766;2023-04-10T01:31:30;98439.41;;;4.80;73.80
14242;BME280;7205;50.864;12.766;2023-04-10T01:34:02;98430.25;;;4.75;73.73
14242;BME280;7205;50.864;12.766;2023-04-10T01:36:36;98439.63;;;4.77;73.79
14242;BME280;7205;50.864;12.766;2023-04-10T01:39:05;98434.75;;;4.73;74.37
14242;BME280;7205;50.864;12.766;2023-04-10T01:41:34;98440.09;;;4.71;74.38
14242;BME280;7205;50.864;12.766;2023-04-10T01:44:05;98434.41;;;4.66;74.51
14242;BME280;7205;50.864;12.766;2023-04-10T01:46:36;98432.38;;;4.70;74.65
14242;BME280;7205;50.864;12.766;2023-04-10T01:49:04;98426.91;;;4.62;74.98
14242;BME280;7205;50.864;12.766;2023-04-10T01:51:34;98437.00;;;4.66;74.42
14242;BME280;7205;50.864;12.766;2023-04-10T01:54:07;98422.75;;;4.59;74.58
14242;BME280;7205;50.864;12.766;2023-04-10T01:56:40;98432.03;;;4.63;74.79
14242;BME280;7205;50.864;12.766;2023-04-10T01:59:17;98436.41;;;4.63;75.30
14242;BME280;7205;50.864;12.766;2023-04-10T02:01:44;98437.25;;;4.63;74.69
14242;BME280;7205;50.864;12.766;2023-04-10T02:04:11;98428.81;;;4.60;74.80
14242;BME280;7205;50.864;12.766;2023-04-10T02:06:48;98437.38;;;4.62;75.38
14242;BME280;7205;50.864;12.766;2023-04-10T02:09:22;98433.91;;;4.61;75.38
14242;BME280;7205;50.864;12.766;2023-04-10T02:11:55;98425.34;;;4.59;75.45
14242;BME280;7205;50.864;12.766;2023-04-10T02:14:30;98425.59;;;4.56;75.54
14242;BME280;7205;50.864;12.766;2023-04-10T02:17:00;98427.38;;;4.56;75.92
14242;BME280;7205;50.864;12.766;2023-04-10T02:19:30;98427.50;;;4.54;75.73
14242;BME280;7205;50.864;12.766;2023-04-10T02:21:57;98426.91;;;4.51;75.79
14242;BME280;7205;50.864;12.766;2023-04-10T02:24:25;98430.47;;;4.50;75.83
14242;BME280;7205;50.864;12.766;2023-04-10T02:26:55;98429.16;;;4.44;75.80
14242;BME280;7205;50.864;12.766;2023-04-10T02:29:30;98426.91;;;4.40;75.37
14242;BME280;7205;50.864;12.766;2023-04-10T02:32:02;98425.13;;;4.40;75.41
14242;BME280;7205;50.864;12.766;2023-04-10T02:34:31;98422.72;;;4.37;75.65
14242;BME280;7205;50.864;12.766;2023-04-10T02:37:00;98426.91;;;4.40;75.76
14242;BME280;7205;50.864;12.766;2023-04-10T02:39:30;98428.78;;;4.38;76.53
14242;BME280;7205;50.864;12.766;2023-04-10T02:41:59;98431.66;;;4.35;76.09
14242;BME280;7205;50.864;12.766;2023-04-10T02:44:33;98432.69;;;4.32;76.46
14242;BME280;7205;50.864;12.766;2023-04-10T02:47:11;98441.38;;;4.33;76.72
14242;BME280;7205;50.864;12.766;2023-04-10T02:49:46;98446.50;;;4.34;76.91
14242;BME280;7205;50.864;12.766;2023-04-10T02:52:15;98438.75;;;4.33;77.13
14242;BME280;7205;50.864;12.766;2023-04-10T02:54:44;98442.22;;;4.33;77.63
14242;BME280;7205;50.864;12.766;2023-04-10T02:57:10;98429.16;;;4.33;78.05
14242;BME280;7205;50.864;12.766;2023-04-10T02:59:39;98434.25;;;4.35;78.33
14242;BME280;7205;50.864;12.766;2023-04-10T03:02:08;98431.66;;;4.35;78.08
14242;BME280;7205;50.864;12.766;2023-04-10T03:04:41;98425.56;;;4.34;77.89
14242;BME280;7205;50.864;12.766;2023-04-10T03:07:19;98429.63;;;4.38;78.11
14242;BME280;7205;50.864;12.766;2023-04-10T03:09:50;98435.59;;;4.40;78.32
14242;BME280;7205;50.864;12.766;2023-04-10T03:12:23;98439.13;;;4.39;78.44
14242;BME280;7205;50.864;12.766;2023-04-10T03:14:56;98437.34;;;4.40;78.58
14242;BME280;7205;50.864;12.766;2023-04-10T03:17:28;98436.63;;;4.38;78.34
14242;BME280;7205;50.864;12.766;2023-04-10T03:20:03;98424.53;;;4.37;78.33
14242;BME280;7205;50.864;12.766;2023-04-10T03:22:33;98429.97;;;4.34;78.21
14242;BME280;7205;50.864;12.766;2023-04-10T03:25:01;98426.53;;;4.33;78.38
14242;BME280;7205;50.864;12.766;2023-04-10T03:27:29;98435.09;;;4.35;78.99
14242;BME280;7205;50.864;12.766;2023-04-10T03:30:00;98432.56;;;4.34;79.04
14242;BME280;7205;50.864;12.766;2023-04-10T03:32:34;98434.50;;;4.32;78.86
14242;BME280;7205;50.864;12.766;2023-04-10T03:35:00;98434.50;;;4.32;78.71
14242;BME280;7205;50.864;12.766;2023-04-10T03:37:27;98434.50;;;4.32;78.81
14242;BME280;7205;50.864;12.766;2023-04-10T03:39:54;98432.69;;;4.32;78.78
14242;BME280;7205;50.864;12.766;2023-04-10T03:42:21;98439.59;;;4.33;78.68
14242;BME280;7205;50.864;12.766;2023-04-10T03:44:49;98440.53;;;4.32;79.55
14242;BME280;7205;50.864;12.766;2023-04-10T03:47:17;98437.94;;;4.32;79.79
14242;BME280;7205;50.864;12.766;2023-04-10T03:49:47;98440.41;;;4.34;79.40
14242;BME280;7205;50.864;12.766;2023-04-10T03:52:14;98441.38;;;4.33;80.04
14242;BME280;7205;50.864;12.766;2023-04-10T03:54:41;98439.72;;;4.32;79.80
14242;BME280;7205;50.864;12.766;2023-04-10T03:57:17;98446.59;;;4.33;80.03
14242;BME280;7205;50.864;12.766;2023-04-10T04:00:02;98439.72;;;4.32;80.11
14242;BME280;7205;50.864;12.766;2023-04-10T04:02:46;98438.41;;;4.26;79.94
14242;BME280;7205;50.864;12.766;2023-04-10T04:05:26;98433.53;;;4.22;79.91
14242;BME280;7205;50.864;12.766;2023-04-10T04:08:11;98438.88;;;4.20;79.54
14242;BME280;7205;50.864;12.766;2023-04-10T04:11:05;98440.78;;;4.18;79.82
14242;BME280;7205;50.864;12.766;2023-04-10T04:13:35;98429.59;;;4.16;79.46
14242;BME280;7205;50.864;12.766;2023-04-10T04:16:08;98437.44;;;4.16;79.58
14242;BME280;7205;50.864;12.766;2023-04-10T04:18:51;98448.00;;;4.15;79.81
14242;BME280;7205;50.864;12.766;2023-04-10T04:21:27;98437.91;;;4.10;79.80
14242;BME280;7205;50.864;12.766;2023-04-10T04:24:19;98433.63;;;4.09;79.76
14242;BME280;7205;50.864;12.766;2023-04-10T04:27:13;98436.34;;;4.08;80.11
14242;BME280;7205;50.864;12.766;2023-04-10T04:30:08;98435.50;;;4.07;80.46
14242;BME280;7205;50.864;12.766;2023-04-10T04:33:02;98443.13;;;4.10;80.56
14242;BME280;7205;50.864;12.766;2023-04-10T04:35:57;98446.56;;;4.11;80.83
14242;BME280;7205;50.864;12.766;2023-04-10T04:38:53;98443.03;;;4.12;81.52
14242;BME280;7205;50.864;12.766;2023-04-10T04:41:36;98451.47;;;4.15;81.73
14242;BME280;7205;50.864;12.766;2023-04-10T04:44:11;98448.59;;;4.18;81.88
14242;BME280;7205;50.864;12.766;2023-04-10T04:46:56;98456.94;;;4.23;81.99
14242;BME280;7205;50.864;12.766;2023-04-10T04:49:23;98451.47;;;4.26;81.97
14242;BME280;7205;50.864;12.766;2023-04-10T04:52:06;98454.56;;;4.31;81.98
14242;BME280;7205;50.864;12.766;2023-04-10T04:54:40;98463.13;;;4.33;82.25
14242;BME280;7205;50.864;12.766;2023-04-10T04:57:13;98458.50;;;4.37;82.54
14242;BME280;7205;50.864;12.766;2023-04-10T05:00:05;98466.97;;;4.40;82.04
14242;BME280;7205;50.864;12.766;2023-04-10T05:03:01;98455.41;;;4.43;82.19
14242;BME280;7205;50.864;12.766;2023-04-10T05:05:28;98465.63;;;4.46;82.81
14242;BME280;7205;50.864;12.766;2023-04-10T05:08:19;98461.84;;;4.50;82.74
14242;BME280;7205;50.864;12.766;2023-04-10T05:11:06;98467.56;;;4.55;82.63
14242;BME280;7205;50.864;12.766;2023-04-10T05:13:59;98467.06;;;4.61;82.50
14242;BME280;7205;50.864;12.766;2023-04-10T05:16:50;98473.50;;;4.68;83.08
14242;BME280;7205;50.864;12.766;2023-04-10T05:19:36;98472.47;;;4.70;83.02
14242;BME280;7205;50.864;12.766;2023-04-10T05:22:28;98472.81;;;4.77;83.12
14242;BME280;7205;50.864;12.766;2023-04-10T05:25:25;98472.91;;;4.86;82.88
14242;BME280;7205;50.864;12.766;2023-04-10T05:28:02;98473.16;;;4.94;83.61
14242;BME280;7205;50.864;12.766;2023-04-10T05:31:05;98470.63;;;5.04;83.68
14242;BME280;7205;50.864;12.766;2023-04-10T05:33:49;98468.41;;;5.10;83.66
14242;BME280;7205;50.864;12.766;2023-04-10T05:36:38;98473.00;;;5.18;83.46
14242;BME280;7205;50.864;12.766;2023-04-10T05:39:16;98471.69;;;5.24;82.91
14242;BME280;7205;50.864;12.766;2023-04-10T05:42:20;98470.97;;;5.33;83.33
14242;BME280;7205;50.864;12.766;2023-04-10T05:45:07;98466.91;;;5.40;83.13
14242;BME280;7205;50.864;12.766;2023-04-10T05:47:51;98466.31;;;5.47;83.41
14242;BME280;7205;50.864;12.766;2023-04-10T05:50:34;98469.97;;;5.56;82.97
14242;BME280;7205;50.864;12.766;2023-04-10T05:53:27;98464.94;;;5.64;83.10
14242;BME280;7205;50.864;12.766;2023-04-10T05:56:04;98467.63;;;5.73;83.72
14242;BME280;7205;50.864;12.766;2023-04-10T05:58:58;98462.28;;;5.86;83.58
14242;BME280;7205;50.864;12.766;2023-04-10T06:01:43;98465.53;;;5.99;83.68
14242;BME280;7205;50.864;12.766;2023-04-10T06:04:11;98457.75;;;6.08;84.14
14242;BME280;7205;50.864;12.766;2023-04-10T06:06:38;98460.19;;;6.21;84.29
14242;BME280;7205;50.864;12.766;2023-04-10T06:09:05;98463.44;;;6.34;84.37
14242;BME280;7205;50.864;12.766;2023-04-10T06:11:33;98462.28;;;6.48;84.34
14242;BME280;7205;50.864;12.766;2023-04-10T06:14:01;98457.66;;;6.61;84.60
14242;BME280;7205;50.864;12.766;2023-04-10T06:16:35;98451.25;;;6.74;84.52
14242;BME280;7205;50.864;12.766;2023-04-10T06:19:02;98456.13;;;6.88;84.68
14242;BME280;7205;50.864;12.766;2023-04-10T06:21:29;98457.69;;;7.00;84.69
14242;BME280;7205;50.864;12.766;2023-04-10T06:24:02;98462.59;;;7.14;84.41
14242;BME280;7205;50.864;12.766;2023-04-10T06:26:29;98459.03;;;7.25;84.46
14242;BME280;7205;50.864;12.766;2023-04-10T06:29:13;98452.53;;;7.38;84.55
14242;BME280;7205;50.864;12.766;2023-04-10T06:32:19;98460.06;;;7.52;84.18
14242;BME280;7205;50.864;12.766;2023-04-10T06:35:01;98459.91;;;7.63;84.02
14242;BME280;7205;50.864;12.766;2023-04-10T06:37:29;98456.34;;;7.74;83.82
14242;BME280;7205;50.864;12.766;2023-04-10T06:40:03;98451.78;;;7.86;83.61
14242;BME280;7205;50.864;12.766;2023-04-10T06:42:31;98443.91;;;7.95;83.46
14242;BME280;7205;50.864;12.766;2023-04-10T06:45:07;98441.13;;;8.06;82.99
14242;BME280;7205;50.864;12.766;2023-04-10T06:47:34;98443.72;;;8.16;83.03
14242;BME280;7205;50.864;12.766;2023-04-10T06:50:01;98446.41;;;8.25;82.16
14242;BME280;7205;50.864;12.766;2023-04-10T06:52:28;98444.59;;;8.35;82.32
14242;BME280;7205;50.864;12.766;2023-04-10T06:54:54;98448.03;;;8.45;81.61
14242;BME280;7205;50.864;12.766;2023-04-10T06:57:21;98431.50;;;8.53;81.59
14242;BME280;7205;50.864;12.766;2023-04-10T06:59:48;98432.47;;;8.61;81.41
14242;BME280;7205;50.864;12.766;2023-04-10T07:02:16;98431.59;;;8.70;81.51
14242;BME280;7205;50.864;12.766;2023-04-10T07:04:43;98429.78;;;8.80;81.49
14242;BME280;7205;50.864;12.766;2023-04-10T07:07:10;98425.28;;;8.91;81.08
14242;BME280;7205;50.864;12.766;2023-04-10T07:09:38;98425.09;;;9.02;80.57
14242;BME280;7205;50.864;12.766;2023-04-10T07:12:05;98425.03;;;9.11;79.93
14242;BME280;7205;50.864;12.766;2023-04-10T07:14:32;98421.38;;;9.22;79.20
14242;BME280;7205;50.864;12.766;2023-04-10T07:17:00;98421.31;;;9.31;78.38
14242;BME280;7205;50.864;12.766;2023-04-10T07:19:28;98413.38;;;9.41;77.76
14242;BME280;7205;50.864;12.766;2023-04-10T07:21:55;98413.44;;;9.49;76.30
14242;BME280;7205;50.864;12.766;2023-04-10T07:24:22;98417.00;;;9.57;75.48
14242;BME280;7205;50.864;12.766;2023-04-10T07:26:49;98417.06;;;9.65;75.53
14242;BME280;7205;50.864;12.766;2023-04-10T07:29:16;98412.56;;;9.75;74.49
14242;BME280;7205;50.864;12.766;2023-04-10T07:31:42;98411.78;;;9.83;73.80
14242;BME280;7205;50.864;12.766;2023-04-10T07:34:10;98416.00;;;9.93;73.57
14242;BME280;7205;50.864;12.766;2023-04-10T07:36:38;98412.47;;;10.02;73.25
14242;BME280;7205;50.864;12.766;2023-04-10T07:39:05;98409.75;;;10.12;72.43
14242;BME280;7205;50.864;12.766;2023-04-10T07:41:32;98398.31;;;10.21;72.35
14242;BME280;7205;50.864;12.766;2023-04-10T07:43:59;98400.84;;;10.31;71.77
14242;BME280;7205;50.864;12.766;2023-04-10T07:46:26;98401.72;;;10.39;71.26
14242;BME280;7205;50.864;12.766;2023-04-10T07:48:53;98405.41;;;10.46;70.59
14242;BME280;7205;50.864;12.766;2023-04-10T07:51:20;98400.31;;;10.53;69.87
14242;BME280;7205;50.864;12.766;2023-04-10T07:53:48;98399.53;;;10.60;69.74
14242;BME280;7205;50.864;12.766;2023-04-10T07:56:16;98402.25;;;10.68;69.14
14242;BME280;7205;50.864;12.766;2023-04-10T07:58:43;98405.06;;;10.75;68.32
14242;BME280;7205;50.864;12.766;2023-04-10T08:01:10;98404.28;;;10.82;68.27
14242;BME280;7205;50.864;12.766;2023-04-10T08:03:38;98402.81;;;10.88;67.99
14242;BME280;7205;50.864;12.766;2023-04-10T08:06:06;98400.53;;;10.93;66.91
14242;BME280;7205;50.864;12.766;2023-04-10T08:08:35;98397.41;;;10.97;66.33
14242;BME280;7205;50.864;12.766;2023-04-10T08:11:06;98389.00;;;11.02;65.72
14242;BME280;7205;50.864;12.766;2023-04-10T08:13:33;98392.97;;;11.06;64.89
14242;BME280;7205;50.864;12.766;2023-04-10T08:16:01;98388.22;;;11.09;65.20
14242;BME280;7205;50.864;12.766;2023-04-10T08:18:27;98403.41;;;11.15;64.80
14242;BME280;7205;50.864;12.766;2023-04-10T08:20:54;98390.38;;;11.22;64.54
14242;BME280;7205;50.864;12.766;2023-04-10T08:23:21;98391.72;;;11.26;64.63
14242;BME280;7205;50.864;12.766;2023-04-10T08:25:48;98391.91;;;11.32;64.21
14242;BME280;7205;50.864;12.766;2023-04-10T08:28:17;98385.84;;;11.40;64.58
14242;BME280;7205;50.864;12.766;2023-04-10T08:30:45;98380.56;;;11.48;64.45
14242;BME280;7205;50.864;12.766;2023-04-10T08:33:12;98382.19;;;11.57;64.19
14242;BME280;7205;50.864;12.766;2023-04-10T08:35:39;98376.81;;;11.67;63.67
14242;BME280;7205;50.864;12.766;2023-04-10T08:38:05;98380.13;;;11.77;63.81
14242;BME280;7205;50.864;12.766;2023-04-10T08:40:36;98377.47;;;11.85;63.11
14242;BME280;7205;50.864;12.766;2023-04-10T08:43:02;98377.31;;;11.94;63.27
14242;BME280;7205;50.864;12.766;2023-04-10T08:45:31;98374.34;;;12.05;62.78
14242;BME280;7205;50.864;12.766;2023-04-10T08:48:00;98374.00;;;12.16;62.52
14242;BME280;7205;50.864;12.766;2023-04-10T08:50:30;98368.22;;;12.29;62.51
14242;BME280;7205;50.864;12.766;2023-04-10T08:53:03;98361.53;;;12.41;61.76
14242;BME280;7205;50.864;12.766;2023-04-10T08:55:31;98362.84;;;12.53;60.99
14242;BME280;7205;50.864;12.766;2023-04-10T08:57:58;98353.06;;;12.61;60.28
14242;BME280;7205;50.864;12.766;2023-04-10T09:00:25;98352.22;;;12.69;60.28
14242;BME280;7205;50.864;12.766;2023-04-10T09:02:54;98346.03;;;12.77;59.55
14242;BME280;7205;50.864;12.766;2023-04-10T09:05:24;98345.34;;;12.83;59.31
14242;BME280;7205;50.864;12.766;2023-04-10T09:07:52;98343.84;;;12.88;58.98
14242;BME280;7205;50.864;12.766;2023-04-10T09:10:19;98344.81;;;12.95;58.88
14242;BME280;7205;50.864;12.766;2023-04-10T09:12:46;98340.34;;;13.04;58.53
14242;BME280;7205;50.864;12.766;2023-04-10T09:15:14;98336.97;;;13.10;58.18
14242;BME280;7205;50.864;12.766;2023-04-10T09:17:56;98342.75;;;13.13;57.69
14242;BME280;7205;50.864;12.766;2023-04-10T09:20:27;98340.91;;;13.22;57.88
14242;BME280;7205;50.864;12.766;2023-04-10T09:22:54;98332.88;;;13.30;57.91
14242;BME280;7205;50.864;12.766;2023-04-10T09:25:32;98330.03;;;13.39;57.77
14242;BME280;7205;50.864;12.766;2023-04-10T09:28:00;98337.03;;;13.55;57.04
14242;BME280;7205;50.864;12.766;2023-04-10T09:30:32;98331.97;;;13.68;56.37
14242;BME280;7205;50.864;12.766;2023-04-10T09:33:01;98322.28;;;13.75;54.88
14242;BME280;7205;50.864;12.766;2023-04-10T09:35:36;98318.09;;;13.80;54.31
14242;BME280;7205;50.864;12.766;2023-04-10T09:38:14;98311.78;;;13.81;53.85
14242;BME280;7205;50.864;12.766;2023-04-10T09:40:41;98300.81;;;13.84;53.34
14242;BME280;7205;50.864;12.766;2023-04-10T09:43:19;98308.97;;;13.83;52.84
14242;BME280;7205;50.864;12.766;2023-04-10T09:45:47;98296.69;;;13.82;51.97
14242;BME280;7205;50.864;12.766;2023-04-10T09:48:15;98299.88;;;13.77;51.66
14242;BME280;7205;50.864;12.766;2023-04-10T09:50:42;98291.06;;;13.77;51.80
14242;BME280;7205;50.864;12.766;2023-04-10T09:53:10;98286.25;;;13.80;52.56
14242;BME280;7205;50.864;12.766;2023-04-10T09:55:38;98284.72;;;13.86;52.36
14242;BME280;7205;50.864;12.766;2023-04-10T09:58:05;98280.66;;;13.90;52.88
14242;BME280;7205;50.864;12.766;2023-04-10T10:00:38;98287.09;;;13.96;53.15
14242;BME280;7205;50.864;12.766;2023-04-10T10:03:07;98278.41;;;14.02;52.68
14242;BME280;7205;50.864;12.766;2023-04-10T10:05:38;98268.25;;;14.05;52.29
14242;BME280;7205;50.864;12.766;2023-04-10T10:08:06;98272.19;;;14.09;51.79
14242;BME280;7205;50.864;12.766;2023-04-10T10:10:36;98270.66;;;14.15;51.69
14242;BME280;7205;50.864;12.766;2023-04-10T10:13:06;98269.53;;;14.24;52.09
14242;BME280;7205;50.864;12.766;2023-04-10T10:15:36;98256.38;;;14.30;51.89
14242;BME280;7205;50.864;12.766;2023-04-10T10:18:12;98250.34;;;14.36;51.65
14242;BME280;7205;50.864;12.766;2023-04-10T10:20:44;98244.94;;;14.44;51.76
14242;BME280;7205;50.864;12.766;2023-04-10T10:23:12;98229.91;;;14.51;52.01
14242;BME280;7205;50.864;12.766;2023-04-10T10:25:42;98227.69;;;14.55;50.91
14242;BME280;7205;50.864;12.766;2023-04-10T10:28:12;98225.66;;;14.57;51.00
14242;BME280;7205;50.864;12.766;2023-04-10T10:30:39;98223.28;;;14.62;50.83
14242;BME280;7205;50.864;12.766;2023-04-10T10:33:06;98219.06;;;14.67;50.47
14242;BME280;7205;50.864;12.766;2023-04-10T10:35:34;98208.50;;;14.74;49.62
14242;BME280;7205;50.864;12.766;2023-04-10T10:38:03;98206.94;;;14.79;48.67
14242;BME280;7205;50.864;12.766;2023-04-10T10:40:32;98210.94;;;14.90;49.37
14242;BME280;7205;50.864;12.766;2023-04-10T10:43:09;98200.81;;;15.00;49.44
14242;BME280;7205;50.864;12.766;2023-04-10T10:45:41;98195.81;;;15.12;49.18
14242;BME280;7205;50.864;12.766;2023-04-10T10:48:10;98195.50;;;15.21;48.03
14242;BME280;7205;50.864;12.766;2023-04-10T10:50:53;98197.63;;;15.32;47.27
14242;BME280;7205;50.864;12.766;2023-04-10T10:53:32;98188.41;;;15.49;47.29
14242;BME280;7205;50.864;12.766;2023-04-10T10:56:33;98184.00;;;15.63;46.88
14242;BME280;7205;50.864;12.766;2023-04-10T10:59:01;98195.19;;;15.79;46.64
14242;BME280;7205;50.864;12.766;2023-04-10T11:01:28;98193.00;;;15.89;46.33
14242;BME280;7205;50.864;12.766;2023-04-10T11:03:54;98183.00;;;15.98;46.34
14242;BME280;7205;50.864;12.766;2023-04-10T11:06:48;98171.97;;;16.01;45.48
14242;BME280;7205;50.864;12.766;2023-04-10T11:09:44;98152.34;;;16.08;45.16
14242;BME280;7205;50.864;12.766;2023-04-10T11:12:14;98156.88;;;16.14;44.50
14242;BME280;7205;50.864;12.766;2023-04-10T11:14:42;98154.66;;;16.24;44.80
14242;BME280;7205;50.864;12.766;2023-04-10T11:17:09;98153.91;;;16.30;45.08
14242;BME280;7205;50.864;12.766;2023-04-10T11:19:55;98152.03;;;16.31;43.69
14242;BME280;7205;50.864;12.766;2023-04-10T11:22:23;98158.00;;;16.33;43.32
14242;BME280;7205;50.864;12.766;2023-04-10T11:24:54;98150.81;;;16.33;42.51
14242;BME280;7205;50.864;12.766;2023-04-10T11:27:43;98142.59;;;16.28;41.58
14242;BME280;7205;50.864;12.766;2023-04-10T11:30:39;98136.63;;;16.26;40.69
14242;BME280;7205;50.864;12.766;2023-04-10T11:33:06;98144.00;;;16.24;40.12
14242;BME280;7205;50.864;12.766;2023-04-10T11:35:33;98143.97;;;16.18;39.88
14242;BME280;7205;50.864;12.766;2023-04-10T11:38:14;98127.13;;;16.11;39.84
14242;BME280;7205;50.864;12.766;2023-04-10T11:40:55;98131.00;;;16.02;39.92
14242;BME280;7205;50.864;12.766;2023-04-10T11:43:23;98130.13;;;15.95;40.33
14242;BME280;7205;50.864;12.766;2023-04-10T11:45:58;98121.09;;;15.89;39.88
14242;BME280;7205;50.864;12.766;2023-04-10T11:48:26;98109.00;;;15.87;40.81
14242;BME280;7205;50.864;12.766;2023-04-10T11:50:53;98114.53;;;15.85;40.66
14242;BME280;7205;50.864;12.766;2023-04-10T11:53:20;98101.19;;;15.85;40.33
14242;BME280;7205;50.864;12.766;2023-04-10T11:55:47;98107.53;;;15.84;40.23
14242;BME280;7205;50.864;12.766;2023-04-10T11:58:25;98108.38;;;15.85;39.95
14242;BME280;7205;50.864;12.766;2023-04-10T12:00:57;98107.34;;;15.86;40.03
14242;BME280;7205;50.864;12.766;2023-04-10T12:03:34;98102.84;;;15.86;39.53
14242;BME280;7205;50.864;12.766;2023-04-10T12:06:03;98104.66;;;15.86;39.30
14242;BME280;7205;50.864;12.766;2023-04-10T12:08:32;98099.34;;;15.86;39.94
14242;BME280;7205;50.864;12.766;2023-04-10T12:10:59;98098.97;;;15.89;39.92
14242;BME280;7205;50.864;12.766;2023-04-10T12:13:29;98090.59;;;15.92;40.09
14242;BME280;7205;50.864;12.766;2023-04-10T12:15:57;98094.47;;;15.96;40.14
14242;BME280;7205;50.864;12.766;2023-04-10T12:18:25;98101.25;;;15.98;40.02
14242;BME280;7205;50.864;12.766;2023-04-10T12:20:53;98082.22;;;16.01;39.43
14242;BME280;7205;50.864;12.766;2023-04-10T12:23:22;98081.81;;;16.04;39.17
14242;BME280;7205;50.864;12.766;2023-04-10T12:25:49;98083.69;;;16.10;39.07
14242;BME280;7205;50.864;12.766;2023-04-10T12:28:17;98077.56;;;16.16;38.99
14242;BME280;7205;50.864;12.766;2023-04-10T12:30:49;98086.63;;;16.22;38.96
14242;BME280;7205;50.864;12.766;2023-04-10T12:33:22;98076.59;;;16.30;38.86
14242;BME280;7205;50.864;12.766;2023-04-10T12:35:49;98079.91;;;16.39;38.94
14242;BME280;7205;50.864;12.766;2023-04-10T12:40:57;98069.09;;;16.47;38.10
14242;BME280;7205;50.864;12.766;2023-04-10T12:43:31;98068.88;;;16.49;37.69
14242;BME280;7205;50.864;12.766;2023-04-10T12:46:00;98056.19;;;16.51;37.62
14242;BME280;7205;50.864;12.766;2023-04-10T12:48:27;98057.19;;;16.50;37.41
14242;BME280;7205;50.864;12.766;2023-04-10T12:50:55;98052.88;;;16.49;37.59
14242;BME280;7205;50.864;12.766;2023-04-10T12:53:22;98051.81;;;16.43;37.72
14242;BME280;7205;50.864;12.766;2023-04-10T12:55:59;98050.38;;;16.34;37.55
14242;BME280;7205;50.864;12.766;2023-04-10T12:58:27;98041.94;;;16.30;37.84
14242;BME280;7205;50.864;12.766;2023-04-10T13:00:56;98040.28;;;16.29;37.87
14242;BME280;7205;50.864;12.766;2023-04-10T13:03:24;98031.09;;;16.32;38.62
14242;BME280;7205;50.864;12.766;2023-04-10T13:05:51;98024.09;;;16.31;39.17
14242;BME280;7205;50.864;12.766;2023-04-10T13:08:19;98024.13;;;16.38;38.98
14242;BME280;7205;50.864;12.766;2023-04-10T13:10:46;98016.53;;;16.41;38.70
14242;BME280;7205;50.864;12.766;2023-04-10T13:13:13;98020.06;;;16.48;39.17
14242;BME280;7205;50.864;12.766;2023-04-10T13:15:40;98021.31;;;16.59;39.21
14242;BME280;7205;50.864;12.766;2023-04-10T13:18:07;98016.59;;;16.67;38.80
14242;BME280;7205;50.864;12.766;2023-04-10T13:20:37;98004.91;;;16.81;39.26
14242;BME280;7205;50.864;12.766;2023-04-10T13:23:04;97998.97;;;16.86;38.70
14242;BME280;7205;50.864;12.766;2023-04-10T13:25:32;97986.03;;;16.89;38.42
14242;BME280;7205;50.864;12.766;2023-04-10T13:28:00;97987.66;;;16.90;38.39
14242;BME280;7205;50.864;12.766;2023-04-10T13:30:27;97979.47;;;16.92;37.91
14242;BME280;7205;50.864;12.766;2023-04-10T13:32:54;97976.38;;;16.95;37.86
14242;BME280;7205;50.864;12.766;2023-04-10T13:35:21;97971.44;;;16.98;37.84
14242;BME280;7205;50.864;12.766;2023-04-10T13:37:49;97973.31;;;17.04;37.81